createdAt,value
2018-03-04T00:00:07.694Z,3.10
2018-03-04T00:02:35.184Z,3.10
2018-03-04T00:05:03.458Z,3.10
2018-03-04T00:07:31.708Z,3.20
2018-03-04T00:09:59.297Z,3.20
2018-03-04T00:12:27.541Z,3.20
2018-03-04T00:14:55.025Z,3.20
2018-03-04T00:17:23.286Z,3.30
2018-03-04T00:19:51.526Z,3.40
2018-03-04T00:22:19.021Z,3.40
2018-03-04T00:24:46.610Z,3.50
2018-03-04T00:27:14.849Z,3.60
2018-03-04T00:29:43.860Z,3.50
2018-03-04T00:32:12.105Z,3.50
2018-03-04T00:34:39.843Z,3.50
2018-03-04T00:37:07.337Z,3.50
2018-03-04T00:39:34.914Z,3.40
2018-03-04T00:42:03.161Z,3.40
2018-03-04T00:44:30.654Z,3.30
2018-03-04T00:46:58.893Z,3.30
2018-03-04T00:49:26.377Z,3.30
2018-03-04T00:51:54.909Z,3.40
2018-03-04T00:54:22.617Z,3.40
2018-03-04T00:56:50.905Z,3.40
2018-03-04T00:59:19.179Z,3.40
2018-03-04T01:01:46.770Z,3.40
2018-03-04T01:04:14.265Z,3.40
2018-03-04T01:06:43.250Z,3.50
2018-03-04T01:09:11.358Z,3.50
2018-03-04T01:11:39.617Z,3.50
2018-03-04T01:14:07.097Z,3.50
2018-03-04T01:16:35.361Z,3.40
2018-03-04T01:19:03.601Z,3.40
2018-03-04T01:21:31.077Z,3.30
2018-03-04T01:23:58.576Z,3.40
2018-03-04T01:26:26.056Z,3.40
2018-03-04T01:28:53.530Z,3.40
2018-03-04T01:31:21.273Z,3.40
2018-03-04T01:33:48.789Z,3.40
2018-03-04T01:36:17.033Z,3.60
2018-03-04T01:38:44.569Z,3.50
2018-03-04T01:41:12.081Z,3.50
2018-03-04T01:43:40.545Z,3.50
2018-03-04T01:46:08.269Z,3.40
2018-03-04T01:48:35.749Z,3.30
2018-03-04T01:51:03.241Z,3.30
2018-03-04T01:53:31.494Z,3.50
2018-03-04T01:55:58.975Z,3.40
2018-03-04T01:58:27.252Z,3.50
2018-03-04T02:00:55.529Z,3.40
2018-03-04T02:03:23.839Z,3.30
2018-03-04T02:05:51.337Z,3.30
2018-03-04T02:08:18.813Z,3.20
2018-03-04T02:10:47.053Z,3.20
2018-03-04T02:13:14.561Z,3.20
2018-03-04T02:15:42.036Z,3.20
2018-03-04T02:18:09.565Z,3.10
2018-03-04T02:20:37.829Z,2.80
2018-03-04T02:23:06.083Z,2.80
2018-03-04T02:25:33.557Z,2.80
2018-03-04T02:28:01.136Z,2.80
2018-03-04T02:30:29.377Z,2.80
2018-03-04T02:32:56.904Z,2.70
2018-03-04T02:35:24.403Z,2.70
2018-03-04T02:37:51.898Z,2.70
2018-03-04T02:40:19.373Z,2.60
2018-03-04T02:42:46.898Z,2.60
2018-03-04T02:45:15.181Z,2.30
2018-03-04T02:47:42.681Z,2.20
2018-03-04T02:50:10.178Z,2.10
2018-03-04T02:52:38.427Z,2.00
2018-03-04T02:55:05.909Z,2.00
2018-03-04T02:57:33.414Z,2.00
2018-03-04T03:00:00.895Z,2.00
2018-03-04T03:02:30.359Z,2.10
2018-03-04T03:04:58.208Z,2.10
2018-03-04T03:07:26.469Z,2.20
2018-03-04T03:09:53.943Z,2.10
2018-03-04T03:12:22.203Z,2.00
2018-03-04T03:14:50.465Z,2.00
2018-03-04T03:17:17.938Z,1.90
2018-03-04T03:19:46.262Z,2.00
2018-03-04T03:22:13.787Z,2.00
2018-03-04T03:24:41.269Z,2.00
2018-03-04T03:27:08.802Z,2.00
2018-03-04T03:29:36.289Z,2.00
2018-03-04T03:32:04.609Z,2.10
2018-03-04T03:34:32.185Z,2.10
2018-03-04T03:37:00.436Z,1.90
2018-03-04T03:39:27.909Z,1.80
2018-03-04T03:41:55.477Z,1.80
2018-03-04T03:44:23.723Z,1.90
2018-03-04T03:46:51.209Z,1.90
2018-03-04T03:49:19.485Z,2.00
2018-03-04T03:51:47.721Z,1.80
2018-03-04T03:54:15.209Z,1.80
2018-03-04T03:56:43.477Z,1.80
2018-03-04T03:59:10.957Z,1.80
2018-03-04T04:01:39.201Z,1.80
2018-03-04T04:04:06.706Z,1.80
2018-03-04T04:06:34.190Z,1.90
2018-03-04T04:09:01.680Z,1.90
2018-03-04T04:11:29.189Z,1.90
2018-03-04T04:13:56.665Z,1.90
2018-03-04T04:16:24.162Z,1.80
2018-03-04T04:18:52.432Z,1.80
2018-03-04T04:21:20.689Z,1.80
2018-03-04T04:23:48.173Z,1.70
2018-03-04T04:26:16.457Z,1.50
2018-03-04T04:28:44.701Z,1.60
2018-03-04T04:31:12.203Z,1.60
2018-03-04T04:33:39.722Z,1.60
2018-03-04T04:36:07.203Z,1.70
2018-03-04T04:38:35.445Z,1.80
2018-03-04T04:41:02.976Z,1.80
2018-03-04T04:43:30.458Z,1.80
2018-03-04T04:45:57.946Z,1.90
2018-03-04T04:48:26.225Z,1.90
2018-03-04T04:50:54.473Z,1.90
2018-03-04T04:53:21.953Z,1.90
2018-03-04T04:55:50.218Z,1.70
2018-03-04T04:58:17.793Z,1.70
2018-03-04T05:00:46.041Z,1.50
2018-03-04T05:03:13.545Z,1.50
2018-03-04T05:05:41.085Z,1.50
2018-03-04T05:08:09.329Z,1.40
2018-03-04T05:10:36.856Z,1.40
2018-03-04T05:13:04.329Z,1.40
2018-03-04T05:15:31.813Z,1.40
2018-03-04T05:17:59.642Z,1.40
2018-03-04T05:20:27.185Z,1.20
2018-03-04T05:22:54.675Z,1.20
2018-03-04T05:25:22.181Z,1.10
2018-03-04T05:27:50.434Z,1.00
2018-03-04T05:30:18.014Z,1.00
2018-03-04T05:32:46.392Z,1.00
2018-03-04T05:35:14.641Z,1.00
2018-03-04T05:37:42.128Z,1.00
2018-03-04T05:40:10.503Z,0.90
2018-03-04T05:42:38.749Z,0.70
2018-03-04T05:45:06.235Z,0.70
2018-03-04T05:47:34.498Z,0.70
2018-03-04T05:50:01.977Z,0.70
2018-03-04T05:52:29.458Z,0.60
2018-03-04T05:54:56.961Z,0.60
2018-03-04T05:57:24.444Z,0.50
2018-03-04T05:59:52.688Z,0.40
2018-03-04T06:02:20.192Z,0.40
2018-03-04T06:04:49.325Z,0.30
2018-03-04T06:07:16.805Z,0.30
2018-03-04T06:09:44.310Z,0.30
2018-03-04T06:12:11.781Z,0.30
2018-03-04T06:14:39.263Z,0.20
2018-03-04T06:17:06.760Z,0.20
2018-03-04T06:19:35.010Z,0.20
2018-03-04T06:22:02.585Z,0.20
2018-03-04T06:24:30.849Z,0.30
2018-03-04T06:26:59.109Z,0.40
2018-03-04T06:29:26.585Z,0.40
2018-03-04T06:31:54.086Z,0.50
2018-03-04T06:34:21.568Z,0.70
2018-03-04T06:36:49.052Z,0.80
2018-03-04T06:39:16.554Z,0.90
2018-03-04T06:41:44.030Z,1.00
2018-03-04T06:44:11.513Z,1.10
2018-03-04T06:46:40.518Z,1.00
2018-03-04T06:49:08.089Z,1.00
2018-03-04T06:51:36.349Z,1.10
2018-03-04T06:54:03.964Z,1.10
2018-03-04T06:56:31.463Z,1.20
2018-03-04T06:58:58.947Z,1.30
2018-03-04T07:01:27.214Z,1.40
2018-03-04T07:03:55.461Z,1.40
2018-03-04T07:06:24.498Z,1.40
2018-03-04T07:08:51.997Z,1.40
2018-03-04T07:11:19.493Z,1.40
2018-03-04T07:13:47.773Z,1.60
2018-03-04T07:16:16.091Z,1.70
2018-03-04T07:18:43.882Z,1.70
2018-03-04T07:21:11.362Z,1.70
2018-03-04T07:23:39.184Z,1.90
2018-03-04T07:26:06.669Z,1.90
2018-03-04T07:28:34.153Z,2.00
2018-03-04T07:31:02.450Z,2.30
2018-03-04T07:33:29.929Z,2.30
2018-03-04T07:35:57.421Z,2.50
2018-03-04T07:38:24.913Z,2.70
2018-03-04T07:40:52.397Z,3.00
2018-03-04T07:43:19.873Z,3.40
2018-03-04T07:45:47.477Z,3.90
2018-03-04T07:48:15.761Z,4.40
2018-03-04T07:50:44.778Z,4.80
2018-03-04T07:53:12.275Z,4.80
2018-03-04T07:55:39.749Z,5.20
2018-03-04T07:58:07.222Z,5.60
2018-03-04T08:00:35.485Z,6.30
2018-03-04T08:03:02.957Z,6.20
2018-03-04T08:05:31.333Z,6.90
2018-03-04T08:07:59.594Z,7.30
2018-03-04T08:10:27.069Z,7.30
2018-03-04T08:12:55.334Z,7.90
2018-03-04T08:15:23.613Z,8.30
2018-03-04T08:17:51.853Z,8.60
2018-03-04T08:20:19.325Z,8.60
2018-03-04T08:22:46.886Z,8.90
2018-03-04T08:25:26.249Z,9.30
2018-03-04T08:28:06.975Z,9.50
2018-03-04T08:30:34.446Z,9.50
2018-03-04T08:33:01.994Z,9.50
2018-03-04T08:35:29.467Z,9.80
2018-03-04T08:37:57.093Z,10.10
2018-03-04T08:40:24.572Z,10.60
2018-03-04T08:42:52.085Z,11.20
2018-03-04T08:45:19.589Z,11.50
2018-03-04T08:47:47.179Z,11.80
2018-03-04T08:50:15.442Z,12.20
2018-03-04T08:52:43.689Z,12.40
2018-03-04T08:55:11.169Z,12.40
2018-03-04T08:57:38.741Z,12.50
2018-03-04T09:00:07.717Z,13.10
2018-03-04T09:02:35.438Z,13.10
2018-03-04T09:05:02.937Z,13.60
2018-03-04T09:07:30.415Z,13.90
2018-03-04T09:09:58.724Z,14.20
2018-03-04T09:12:26.242Z,14.20
2018-03-04T09:14:54.526Z,14.60
2018-03-04T09:17:22.769Z,14.30
2018-03-04T09:19:50.266Z,14.30
2018-03-04T09:22:17.757Z,14.60
2018-03-04T09:24:45.233Z,14.60
2018-03-04T09:27:12.735Z,14.50
2018-03-04T09:29:40.981Z,14.90
2018-03-04T09:32:08.458Z,14.90
2018-03-04T09:34:36.733Z,15.20
2018-03-04T09:37:04.973Z,15.40
2018-03-04T09:39:32.446Z,15.40
2018-03-04T09:41:59.946Z,14.90
2018-03-04T09:44:27.433Z,14.80
2018-03-04T09:46:54.921Z,15.30
2018-03-04T09:49:22.416Z,15.20
2018-03-04T09:51:49.910Z,15.20
2018-03-04T09:54:17.387Z,15.80
2018-03-04T09:56:45.032Z,16.00
2018-03-04T09:59:13.229Z,16.10
2018-03-04T10:01:40.710Z,16.00
2018-03-04T10:04:08.982Z,15.90
2018-03-04T10:06:37.273Z,15.60
2018-03-04T10:09:04.819Z,15.60
2018-03-04T10:11:33.195Z,14.90
2018-03-04T10:14:00.679Z,15.00
2018-03-04T10:16:28.161Z,15.10
2018-03-04T10:18:55.693Z,15.30
2018-03-04T10:21:23.181Z,15.20
2018-03-04T10:23:50.658Z,15.70
2018-03-04T10:26:18.158Z,16.20
2018-03-04T10:28:45.633Z,16.10
2018-03-04T10:31:13.117Z,15.90
2018-03-04T10:33:40.614Z,15.70
2018-03-04T10:36:08.889Z,16.30
2018-03-04T10:38:37.132Z,16.90
2018-03-04T10:41:04.633Z,17.00
2018-03-04T10:43:32.126Z,17.30
2018-03-04T10:45:59.601Z,17.20
2018-03-04T10:48:27.101Z,17.00
2018-03-04T10:50:54.581Z,16.00
2018-03-04T10:53:22.098Z,16.90
2018-03-04T10:55:50.387Z,17.60
2018-03-04T10:58:18.935Z,17.10
2018-03-04T11:00:47.271Z,17.10
2018-03-04T11:03:16.250Z,17.40
2018-03-04T11:05:44.497Z,17.50
2018-03-04T11:08:11.981Z,17.50
2018-03-04T11:10:39.481Z,17.30
2018-03-04T11:13:06.961Z,17.40
2018-03-04T11:15:34.437Z,17.20
2018-03-04T11:18:02.709Z,18.10
2018-03-04T11:20:30.987Z,18.00
2018-03-04T11:22:59.267Z,17.20
2018-03-04T11:25:27.530Z,17.50
2018-03-04T11:27:55.009Z,17.50
2018-03-04T11:30:22.549Z,17.50
2018-03-04T11:32:50.835Z,17.20
2018-03-04T11:35:19.076Z,18.00
2018-03-04T11:37:46.554Z,17.90
2018-03-04T11:40:14.053Z,18.20
2018-03-04T11:42:41.529Z,17.80
2018-03-04T11:45:09.037Z,17.60
2018-03-04T11:47:37.298Z,17.10
2018-03-04T11:50:04.870Z,17.10
2018-03-04T11:52:33.114Z,16.80
2018-03-04T11:55:00.619Z,16.80
2018-03-04T11:57:28.165Z,16.70
2018-03-04T11:59:56.410Z,17.00
2018-03-04T12:02:23.917Z,17.00
2018-03-04T12:04:51.401Z,17.30
2018-03-04T12:07:18.881Z,16.70
2018-03-04T12:09:46.646Z,15.60
2018-03-04T12:12:14.107Z,15.90
2018-03-04T12:14:42.404Z,16.70
2018-03-04T12:17:09.959Z,16.70
2018-03-04T12:19:38.202Z,17.60
2018-03-04T12:22:05.676Z,17.60
2018-03-04T12:24:33.254Z,17.30
2018-03-04T12:27:01.513Z,16.60
2018-03-04T12:29:28.993Z,16.60
2018-03-04T12:31:57.258Z,16.70
2018-03-04T12:34:25.501Z,16.80
2018-03-04T12:36:52.989Z,16.80
2018-03-04T12:39:20.490Z,16.70
2018-03-04T12:41:47.966Z,17.00
2018-03-04T12:44:15.454Z,17.50
2018-03-04T12:46:42.953Z,17.40
2018-03-04T12:49:10.489Z,17.50
2018-03-04T12:51:38.740Z,17.40
2018-03-04T12:54:06.316Z,17.40
2018-03-04T12:56:34.568Z,17.40
2018-03-04T12:59:02.050Z,17.30
2018-03-04T13:01:30.309Z,16.20
2018-03-04T13:03:59.290Z,16.20
2018-03-04T13:06:26.773Z,16.10
2018-03-04T13:08:55.050Z,16.50
2018-03-04T13:11:23.294Z,16.50
2018-03-04T13:13:50.777Z,16.50
2018-03-04T13:16:19.050Z,16.50
2018-03-04T13:18:46.525Z,16.40
2018-03-04T13:21:14.763Z,15.70
2018-03-04T13:23:42.350Z,15.60
2018-03-04T13:26:10.602Z,15.40
2018-03-04T13:28:38.077Z,15.40
2018-03-04T13:31:06.335Z,14.20
2018-03-04T13:33:33.809Z,14.20
2018-03-04T13:36:02.083Z,14.10
2018-03-04T13:38:29.582Z,14.10
2018-03-04T13:40:57.353Z,14.50
2018-03-04T13:43:24.833Z,14.60
2018-03-04T13:45:52.343Z,14.10
2018-03-04T13:48:19.832Z,14.10
2018-03-04T13:50:47.306Z,14.00
2018-03-04T13:53:14.805Z,14.50
2018-03-04T13:55:43.046Z,14.40
2018-03-04T13:58:11.197Z,14.40
2018-03-04T14:00:38.698Z,14.10
2018-03-04T14:03:06.413Z,14.00
2018-03-04T14:05:33.897Z,13.60
2018-03-04T14:08:01.526Z,14.00
2018-03-04T14:10:29.001Z,13.90
2018-03-04T14:12:56.481Z,13.70
2018-03-04T14:15:23.982Z,13.60
2018-03-04T14:17:51.514Z,13.60
2018-03-04T14:20:19.757Z,13.60
2018-03-04T14:22:47.249Z,13.60
2018-03-04T14:25:15.526Z,13.40
2018-03-04T14:27:43.768Z,13.30
2018-03-04T14:30:11.293Z,13.30
2018-03-04T14:32:38.984Z,13.20
2018-03-04T14:35:06.515Z,13.10
2018-03-04T14:37:34.749Z,13.10
2018-03-04T14:40:03.188Z,12.80
2018-03-04T14:42:30.826Z,12.80
2018-03-04T14:44:58.354Z,12.90
2018-03-04T14:47:26.616Z,12.60
2018-03-04T14:49:54.093Z,12.60
2018-03-04T14:52:22.357Z,12.60
2018-03-04T14:54:50.631Z,12.50
2018-03-04T14:57:18.907Z,12.50
2018-03-04T14:59:47.181Z,12.20
2018-03-04T15:02:15.481Z,12.20
2018-03-04T15:04:43.125Z,12.10
2018-03-04T15:07:11.680Z,12.00
2018-03-04T15:09:39.959Z,11.90
2018-03-04T15:12:07.440Z,11.80
2018-03-04T15:14:35.697Z,11.60
2018-03-04T15:17:03.992Z,11.60
2018-03-04T15:19:32.237Z,11.30
2018-03-04T15:21:59.738Z,11.30
2018-03-04T15:24:27.285Z,11.30
2018-03-04T15:26:55.554Z,11.10
2018-03-04T15:29:23.819Z,11.10
2018-03-04T15:31:52.060Z,10.90
2018-03-04T15:34:19.534Z,11.00
2018-03-04T15:36:47.034Z,11.00
2018-03-04T15:39:15.282Z,10.90
2018-03-04T15:41:42.757Z,10.90
2018-03-04T15:44:11.022Z,10.90
2018-03-04T15:46:39.277Z,10.90
2018-03-04T15:49:06.865Z,10.90
2018-03-04T15:51:35.121Z,10.80
2018-03-04T15:54:04.114Z,10.80
2018-03-04T15:56:31.602Z,10.80
2018-03-04T15:58:59.861Z,10.80
2018-03-04T16:01:28.114Z,10.70
2018-03-04T16:03:55.592Z,10.60
2018-03-04T16:06:23.858Z,10.70
2018-03-04T16:08:51.429Z,10.70
2018-03-04T16:11:19.681Z,10.60
2018-03-04T16:13:48.702Z,10.50
2018-03-04T16:16:16.952Z,10.30
2018-03-04T16:18:44.441Z,10.30
2018-03-04T16:21:12.705Z,10.20
2018-03-04T16:23:41.062Z,10.10
2018-03-04T16:26:08.561Z,10.10
2018-03-04T16:28:36.102Z,10.10
2018-03-04T16:31:04.360Z,10.00
2018-03-04T16:33:32.605Z,9.90
2018-03-04T16:36:00.097Z,9.90
2018-03-04T16:38:27.573Z,9.80
2018-03-04T16:40:55.369Z,9.80
2018-03-04T16:43:22.861Z,9.80
2018-03-04T16:45:50.529Z,9.70
2018-03-04T16:48:18.015Z,9.70
2018-03-04T16:50:46.387Z,9.60
2018-03-04T16:53:14.633Z,9.60
2018-03-04T16:55:42.917Z,9.50
2018-03-04T16:58:11.176Z,9.30
2018-03-04T17:00:38.666Z,9.30
2018-03-04T17:03:06.984Z,9.20
2018-03-04T17:05:34.486Z,9.20
2018-03-04T17:08:01.965Z,9.00
2018-03-04T17:10:30.208Z,8.90
2018-03-04T17:12:57.712Z,8.90
2018-03-04T17:15:25.248Z,8.90
2018-03-04T17:17:53.521Z,8.80
2018-03-04T17:20:21.797Z,8.70
2018-03-04T17:22:50.119Z,8.70
2018-03-04T17:25:17.881Z,8.70
2018-03-04T17:27:45.381Z,8.60
2018-03-04T17:30:12.861Z,8.50
2018-03-04T17:32:41.112Z,8.20
2018-03-04T17:35:08.669Z,8.20
2018-03-04T17:37:36.168Z,8.20
2018-03-04T17:40:05.114Z,8.10
2018-03-04T17:42:32.633Z,8.10
2018-03-04T17:45:00.115Z,8.10
2018-03-04T17:47:27.598Z,8.10
2018-03-04T17:49:55.113Z,8.00
2018-03-04T17:52:22.586Z,8.00
2018-03-04T17:54:50.068Z,8.00
2018-03-04T17:57:17.647Z,8.00
2018-03-04T17:59:45.913Z,7.80
2018-03-04T18:02:14.161Z,7.90
2018-03-04T18:04:41.673Z,7.80
2018-03-04T18:07:09.216Z,7.90
2018-03-04T18:09:37.477Z,8.00
2018-03-04T18:12:05.742Z,8.00
2018-03-04T18:14:33.361Z,8.00
2018-03-04T18:17:00.837Z,8.00
2018-03-04T18:19:28.330Z,8.00
2018-03-04T18:21:56.046Z,8.00
2018-03-04T18:24:23.543Z,8.00
2018-03-04T18:26:51.043Z,8.00
2018-03-04T18:29:18.613Z,8.10
2018-03-04T18:31:46.138Z,8.10
2018-03-04T18:34:14.514Z,8.20
2018-03-04T18:36:42.003Z,8.20
2018-03-04T18:39:09.473Z,8.20
2018-03-04T18:41:36.961Z,8.30
2018-03-04T18:44:05.961Z,8.30
2018-03-04T18:46:33.437Z,8.30
2018-03-04T18:49:01.729Z,8.30
2018-03-04T18:51:29.305Z,8.30
2018-03-04T18:53:56.781Z,8.30
2018-03-04T18:56:24.289Z,8.30
2018-03-04T18:58:52.566Z,8.20
2018-03-04T19:01:20.113Z,8.20
2018-03-04T19:03:48.398Z,8.20
2018-03-04T19:06:16.206Z,8.20
2018-03-04T19:08:43.701Z,8.10
2018-03-04T19:11:11.966Z,8.10
2018-03-04T19:13:39.557Z,8.10
2018-03-04T19:16:07.043Z,8.10
2018-03-04T19:18:34.557Z,8.10
2018-03-04T19:21:02.814Z,8.20
2018-03-04T19:23:30.293Z,8.10
2018-03-04T19:25:58.562Z,8.20
2018-03-04T19:28:26.826Z,8.30
2018-03-04T19:30:54.301Z,8.20
2018-03-04T19:33:22.584Z,8.30
2018-03-04T19:35:50.182Z,8.30
2018-03-04T19:38:17.681Z,8.40
2018-03-04T19:40:45.259Z,8.40
2018-03-04T19:43:13.502Z,8.50
2018-03-04T19:45:40.980Z,8.40
2018-03-04T19:48:08.484Z,8.50
2018-03-04T19:50:35.970Z,8.60
2018-03-04T19:53:03.469Z,8.60
2018-03-04T19:55:31.757Z,8.60
2018-03-04T19:57:59.293Z,8.60
2018-03-04T20:00:27.578Z,8.60
2018-03-04T20:02:55.849Z,8.60
2018-03-04T20:05:24.092Z,8.60
2018-03-04T20:07:51.561Z,8.50
2018-03-04T20:10:19.829Z,8.50
2018-03-04T20:12:47.300Z,8.50
2018-03-04T20:15:16.291Z,8.50
2018-03-04T20:17:43.790Z,8.50
2018-03-04T20:20:11.292Z,8.50
2018-03-04T20:22:38.774Z,8.40
2018-03-04T20:25:07.261Z,8.40
2018-03-04T20:27:35.512Z,8.30
2018-03-04T20:30:03.018Z,8.30
2018-03-04T20:32:30.570Z,8.30
2018-03-04T20:34:58.041Z,8.10
2018-03-04T20:37:25.538Z,8.10
2018-03-04T20:39:53.571Z,8.10
2018-03-04T20:42:21.102Z,8.10
2018-03-04T20:44:49.349Z,8.00
2018-03-04T20:47:16.857Z,8.00
2018-03-04T20:49:44.381Z,8.00
2018-03-04T20:52:12.661Z,8.10
2018-03-04T20:54:40.946Z,8.10
2018-03-04T20:57:09.185Z,8.00
2018-03-04T20:59:36.666Z,8.00
2018-03-04T21:02:04.921Z,8.10
2018-03-04T21:04:32.397Z,8.10
2018-03-04T21:07:00.694Z,8.00
2018-03-04T21:09:28.954Z,7.90
2018-03-04T21:11:57.198Z,7.90
2018-03-04T21:14:24.692Z,7.90
2018-03-04T21:16:52.954Z,7.80
2018-03-04T21:19:21.207Z,7.80
2018-03-04T21:21:48.706Z,7.80
2018-03-04T21:24:16.242Z,7.70
2018-03-04T21:26:43.950Z,7.70
2018-03-04T21:29:11.552Z,7.60
2018-03-04T21:31:39.521Z,7.60
2018-03-04T21:34:07.352Z,7.50
2018-03-04T21:36:35.828Z,7.50
2018-03-04T21:39:03.392Z,7.50
2018-03-04T21:41:30.873Z,7.50
2018-03-04T21:43:58.359Z,7.60
2018-03-04T21:46:26.890Z,7.50
2018-03-04T21:48:55.278Z,7.50
2018-03-04T21:51:22.842Z,7.50
2018-03-04T21:53:50.353Z,7.50
2018-03-04T21:56:17.833Z,7.40
2018-03-04T21:58:45.330Z,7.40
2018-03-04T22:01:12.826Z,7.40
2018-03-04T22:03:40.301Z,7.40
2018-03-04T22:06:07.826Z,7.20
2018-03-04T22:08:37.089Z,7.10
2018-03-04T22:11:04.621Z,7.00
2018-03-04T22:13:32.109Z,7.00
2018-03-04T22:15:59.610Z,6.90
2018-03-04T22:18:27.097Z,6.80
2018-03-04T22:20:54.574Z,6.80
2018-03-04T22:23:22.069Z,6.80
2018-03-04T22:25:50.316Z,6.90
2018-03-04T22:28:17.797Z,6.80
2018-03-04T22:30:46.058Z,6.90
2018-03-04T22:33:13.551Z,6.80
2018-03-04T22:35:41.069Z,6.80
2018-03-04T22:38:08.585Z,6.80
2018-03-04T22:40:36.113Z,6.90
2018-03-04T22:43:04.358Z,7.00
2018-03-04T22:45:31.857Z,7.00
2018-03-04T22:47:59.341Z,6.90
2018-03-04T22:50:26.817Z,6.90
2018-03-04T22:52:54.313Z,6.90
2018-03-04T22:55:22.561Z,6.70
2018-03-04T22:57:50.150Z,6.70
2018-03-04T23:00:17.706Z,6.70
2018-03-04T23:02:45.950Z,6.70
2018-03-04T23:05:13.430Z,6.70
2018-03-04T23:07:41.693Z,6.80
2018-03-04T23:10:09.231Z,6.70
2018-03-04T23:12:36.678Z,6.70
2018-03-04T23:15:04.285Z,6.80
2018-03-04T23:17:32.561Z,6.80
2018-03-04T23:20:00.846Z,6.80
2018-03-04T23:22:29.109Z,6.80
2018-03-04T23:24:57.436Z,6.90
2018-03-04T23:27:24.917Z,6.80
2018-03-04T23:29:52.418Z,6.90
2018-03-04T23:32:19.889Z,6.70
2018-03-04T23:34:47.381Z,6.60
2018-03-04T23:37:14.873Z,6.50
2018-03-04T23:39:43.157Z,6.50
2018-03-04T23:42:11.397Z,6.50
2018-03-04T23:44:38.898Z,6.40
2018-03-04T23:47:06.383Z,6.50
2018-03-04T23:49:33.903Z,6.50
2018-03-04T23:52:01.415Z,6.30
2018-03-04T23:54:28.889Z,6.20
2018-03-04T23:56:57.875Z,5.90
2018-03-04T23:59:25.374Z,5.90
